Time,TemperatureF,DewpointF,PressureIn,WindDirection,WindDirectionDegrees,WindSpeedMPH,WindSpeedGustMPH,Humidity,HourlyPrecipIn,Conditions,Clouds,dailyrainin,SoftwareType,DateUTC
2013-05-23 00:02:00,67.0,64.0,29.95,East,88,5.0,7.0,89,0.00,,,0.02,weatherlink.com 1.10,2013-05-23 04:02:00,
2013-05-23 01:14:00,67.2,64.0,29.94,SE,143,0.0,4.0,89,0.00,,,0.00,weatherlink.com 1.10,2013-05-23 05:14:00,
2013-05-23 01:32:00,67.2,64.0,29.94,SSE,168,3.0,4.0,88,0.00,,,0.00,weatherlink.com 1.10,2013-05-23 05:32:00,
2013-05-23 01:47:00,66.6,64.0,29.94,SE,139,1.0,2.0,90,0.00,,,0.00,weatherlink.com 1.10,2013-05-23 05:47:00,
2013-05-23 02:02:00,66.7,64.0,29.93,ESE,114,1.0,3.0,90,0.00,,,0.00,weatherlink.com 1.10,2013-05-23 06:02:00,
2013-05-23 02:17:00,66.7,64.0,29.94,SE,142,1.0,1.0,90,0.00,,,0.00,weatherlink.com 1.10,2013-05-23 06:17:00,
2013-05-23 02:32:00,66.1,64.0,29.93,SSE,160,2.0,2.0,91,0.00,,,0.00,weatherlink.com 1.10,2013-05-23 06:32:00,
2013-05-23 02:47:00,66.0,64.0,29.94,SSE,149,2.0,2.0,92,0.00,,,0.00,weatherlink.com 1.10,2013-05-23 06:47:00,
2013-05-23 03:02:00,66.3,64.0,29.93,SW,228,1.0,7.0,91,0.00,,,0.00,weatherlink.com 1.10,2013-05-23 07:02:00,
2013-05-23 03:17:00,66.7,64.0,29.93,WNW,300,1.0,4.0,90,0.00,,,0.00,weatherlink.com 1.10,2013-05-23 07:17:00,
2013-05-23 03:32:00,66.8,64.0,29.94,WSW,254,2.0,5.0,90,0.00,,,0.00,weatherlink.com 1.10,2013-05-23 07:32:00,
2013-05-23 03:47:00,66.4,64.0,29.94,SW,224,2.0,5.0,91,0.00,,,0.00,weatherlink.com 1.10,2013-05-23 07:47:00,
2013-05-23 04:02:00,66.4,64.0,29.94,West,259,3.0,9.0,92,0.00,,,0.00,weatherlink.com 1.10,2013-05-23 08:02:00,
2013-05-23 04:17:00,66.6,64.0,29.94,West,264,2.0,7.0,91,0.00,,,0.00,weatherlink.com 1.10,2013-05-23 08:17:00,
2013-05-23 04:32:00,66.3,64.0,29.94,SW,221,2.0,7.0,91,0.00,,,0.00,weatherlink.com 1.10,2013-05-23 08:32:00,
2013-05-23 04:47:00,66.0,64.0,29.95,West,262,3.0,9.0,92,0.00,,,0.00,weatherlink.com 1.10,2013-05-23 08:47:00,
2013-05-23 05:03:00,65.5,64.0,29.95,SSW,196,3.0,6.0,93,0.00,,,0.00,weatherlink.com 1.10,2013-05-23 09:03:00,
2013-05-23 05:18:00,65.3,64.0,29.96,WSW,248,6.0,12.0,94,0.00,,,0.00,weatherlink.com 1.10,2013-05-23 09:18:00,
2013-05-23 05:33:00,64.9,64.0,29.96,West,264,4.0,9.0,95,0.00,,,0.00,weatherlink.com 1.10,2013-05-23 09:33:00,
2013-05-23 05:48:00,64.7,63.0,29.96,SW,220,5.0,11.0,95,0.00,,,0.00,weatherlink.com 1.10,2013-05-23 09:48:00,
2013-05-23 06:03:00,64.7,63.0,29.96,SW,232,4.0,8.0,95,0.00,,,0.00,weatherlink.com 1.10,2013-05-23 10:03:00,
2013-05-23 06:18:00,64.5,63.0,29.97,West,273,4.0,8.0,95,0.00,,,0.00,weatherlink.com 1.10,2013-05-23 10:18:00,
2013-05-23 06:33:00,64.2,63.0,29.97,West,272,5.0,8.0,96,0.00,,,0.00,weatherlink.com 1.10,2013-05-23 10:33:00,
2013-05-23 06:48:00,64.0,63.0,29.98,West,274,4.0,7.0,96,0.00,,,0.00,weatherlink.com 1.10,2013-05-23 10:48:00,
2013-05-23 07:03:00,63.9,63.0,29.98,WNW,295,3.0,9.0,96,0.00,,,0.00,weatherlink.com 1.10,2013-05-23 11:03:00,
2013-05-23 07:18:00,64.1,63.0,29.99,West,268,4.0,7.0,96,0.00,,,0.00,weatherlink.com 1.10,2013-05-23 11:18:00,
2013-05-23 07:33:00,64.2,63.0,29.99,West,261,3.0,4.0,96,0.00,,,0.00,weatherlink.com 1.10,2013-05-23 11:33:00,
2013-05-23 07:48:00,64.7,63.0,30.00,South,174,2.0,5.0,95,0.00,,,0.00,weatherlink.com 1.10,2013-05-23 11:48:00,
2013-05-23 08:03:00,64.7,63.0,30.00,West,263,2.0,6.0,95,0.00,,,0.00,weatherlink.com 1.10,2013-05-23 12:03:00,
2013-05-23 08:18:00,65.3,63.0,30.00,West,278,1.0,7.0,93,0.00,,,0.00,weatherlink.com 1.10,2013-05-23 12:18:00,
2013-05-23 08:33:00,66.3,63.0,30.00,WSW,247,9.0,10.0,90,0.00,,,0.00,weatherlink.com 1.10,2013-05-23 12:33:00,
2013-05-23 08:48:00,67.0,64.0,30.00,West,261,9.0,10.0,89,0.00,,,0.00,weatherlink.com 1.10,2013-05-23 12:48:00,
2013-05-23 09:03:00,67.9,64.0,30.00,West,279,4.0,8.0,86,0.00,,,0.00,weatherlink.com 1.10,2013-05-23 13:03:00,
2013-05-23 09:18:00,68.7,63.0,30.00,West,281,3.0,11.0,82,0.00,,,0.00,weatherlink.com 1.10,2013-05-23 13:18:00,
2013-05-23 09:33:00,69.5,64.0,30.00,SSW,201,1.0,7.0,82,0.00,,,0.00,weatherlink.com 1.10,2013-05-23 13:33:00,
2013-05-23 09:48:00,71.0,64.0,30.00,ENE,76,3.0,8.0,78,0.00,,,0.00,weatherlink.com 1.10,2013-05-23 13:48:00,
2013-05-23 10:03:00,71.7,64.0,30.00,West,270,4.0,9.0,76,0.00,,,0.00,weatherlink.com 1.10,2013-05-23 14:03:00,
2013-05-23 10:18:00,71.9,64.0,30.00,NW,304,3.0,8.0,77,0.00,,,0.00,weatherlink.com 1.10,2013-05-23 14:18:00,
2013-05-23 10:33:00,71.2,62.0,29.99,West,274,5.0,11.0,73,0.00,,,0.00,weatherlink.com 1.10,2013-05-23 14:33:00,
2013-05-23 10:48:00,72.4,62.0,29.99,WNW,302,3.0,11.0,70,0.00,,,0.00,weatherlink.com 1.10,2013-05-23 14:48:00,
2013-05-23 11:03:00,72.8,61.0,29.99,NNW,328,5.0,12.0,66,0.00,,,0.00,weatherlink.com 1.10,2013-05-23 15:03:00,
2013-05-23 11:18:00,73.1,61.0,29.99,West,266,5.0,14.0,66,0.00,,,0.00,weatherlink.com 1.10,2013-05-23 15:18:00,
2013-05-23 11:33:00,74.2,61.0,29.99,WNW,289,6.0,14.0,63,0.00,,,0.00,weatherlink.com 1.10,2013-05-23 15:33:00,
2013-05-23 11:48:00,75.2,61.0,29.98,WNW,295,5.0,13.0,62,0.00,,,0.00,weatherlink.com 1.10,2013-05-23 15:48:00,
2013-05-23 12:03:00,76.6,62.0,29.98,WNW,295,7.0,14.0,60,0.00,,,0.00,weatherlink.com 1.10,2013-05-23 16:03:00,
2013-05-23 12:18:00,76.8,62.0,29.98,NNE,21,0.0,11.0,60,0.00,,,0.00,weatherlink.com 1.10,2013-05-23 16:18:00,
2013-05-23 12:33:00,76.2,62.0,29.98,SSE,162,7.0,12.0,61,0.00,,,0.00,weatherlink.com 1.10,2013-05-23 16:33:00,
2013-05-23 12:48:00,77.2,61.0,29.97,South,181,6.0,8.0,57,0.00,,,0.00,weatherlink.com 1.10,2013-05-23 16:48:00,
2013-05-23 13:03:00,77.2,61.0,29.97,SW,228,2.0,14.0,58,0.00,,,0.00,weatherlink.com 1.10,2013-05-23 17:03:00,
2013-05-23 13:18:00,77.4,61.0,29.95,ENE,76,2.0,15.0,57,0.00,,,0.00,weatherlink.com 1.10,2013-05-23 17:18:00,
2013-05-23 13:33:00,77.6,61.0,29.95,SW,233,10.0,12.0,56,0.00,,,0.00,weatherlink.com 1.10,2013-05-23 17:33:00,
2013-05-23 13:48:00,78.0,61.0,29.95,South,172,8.0,14.0,57,0.00,,,0.00,weatherlink.com 1.10,2013-05-23 17:48:00,
2013-05-23 14:04:00,76.6,60.0,29.95,NW,305,9.0,18.0,57,0.00,,,0.00,weatherlink.com 1.10,2013-05-23 18:04:00,
2013-05-23 14:19:00,76.3,60.0,29.95,WNW,291,1.0,16.0,58,0.00,,,0.00,weatherlink.com 1.10,2013-05-23 18:19:00,
2013-05-23 14:34:00,77.7,59.0,29.94,SSW,198,7.0,16.0,53,0.00,,,0.00,weatherlink.com 1.10,2013-05-23 18:34:00,
2013-05-23 14:49:00,78.1,58.0,29.94,WNW,302,10.0,23.0,51,0.00,,,0.00,weatherlink.com 1.10,2013-05-23 18:49:00,
2013-05-23 15:04:00,77.8,59.0,29.94,West,275,7.0,22.0,52,0.00,,,0.00,weatherlink.com 1.10,2013-05-23 19:04:00,
2013-05-23 15:19:00,77.7,58.0,29.94,NW,321,12.0,25.0,50,0.00,,,0.00,weatherlink.com 1.10,2013-05-23 19:19:00,
2013-05-23 15:34:00,78.2,56.0,29.94,North,349,4.0,21.0,47,0.00,,,0.00,weatherlink.com 1.10,2013-05-23 19:34:00,
2013-05-23 15:49:00,79.6,59.0,29.93,NW,308,6.0,14.0,49,0.00,,,0.00,weatherlink.com 1.10,2013-05-23 19:49:00,
2013-05-23 16:04:00,77.0,57.0,29.93,West,281,11.0,19.0,51,0.00,,,0.00,weatherlink.com 1.10,2013-05-23 20:04:00,
2013-05-23 16:19:00,72.6,63.0,29.93,NW,309,5.0,14.0,72,0.02,,,0.02,weatherlink.com 1.10,2013-05-23 20:19:00,
2013-05-23 16:34:00,75.3,63.0,29.93,North,8,2.0,11.0,66,0.02,,,0.02,weatherlink.com 1.10,2013-05-23 20:34:00,
2013-05-23 16:49:00,77.0,59.0,29.92,WNW,292,3.0,24.0,54,0.03,,,0.03,weatherlink.com 1.10,2013-05-23 20:49:00,
2013-05-23 17:04:00,77.8,58.0,29.92,NNE,21,16.0,22.0,51,0.03,,,0.03,weatherlink.com 1.10,2013-05-23 21:04:00,
2013-05-23 17:19:00,78.3,56.0,29.92,WNW,297,12.0,21.0,46,0.01,,,0.03,weatherlink.com 1.10,2013-05-23 21:19:00,
2013-05-23 17:34:00,77.8,56.0,29.93,North,1,10.0,28.0,48,0.01,,,0.03,weatherlink.com 1.10,2013-05-23 21:34:00,
2013-05-23 17:49:00,77.9,57.0,29.93,West,271,4.0,23.0,49,0.00,,,0.03,weatherlink.com 1.10,2013-05-23 21:49:00,
2013-05-23 18:04:00,77.1,55.0,29.94,WNW,283,14.0,24.0,47,0.00,,,0.03,weatherlink.com 1.10,2013-05-23 22:04:00,
2013-05-23 18:19:00,75.7,56.0,29.95,NE,41,3.0,23.0,51,0.00,,,0.03,weatherlink.com 1.10,2013-05-23 22:19:00,
2013-05-23 18:34:00,75.3,58.0,29.95,NNE,16,3.0,16.0,56,0.00,,,0.03,weatherlink.com 1.10,2013-05-23 22:34:00,
2013-05-23 18:49:00,74.0,59.0,29.95,NW,307,1.0,13.0,59,0.00,,,0.03,weatherlink.com 1.10,2013-05-23 22:49:00,
2013-05-23 19:04:00,73.2,57.0,29.96,West,278,6.0,13.0,58,0.00,,,0.03,weatherlink.com 1.10,2013-05-23 23:04:00,
2013-05-23 19:19:00,72.7,55.0,29.96,NW,323,6.0,25.0,54,0.00,,,0.03,weatherlink.com 1.10,2013-05-23 23:19:00,
2013-05-23 19:34:00,71.4,55.0,29.97,North,354,9.0,15.0,56,0.00,,,0.03,weatherlink.com 1.10,2013-05-23 23:34:00,
2013-05-23 19:49:00,71.0,54.0,29.98,WNW,297,3.0,16.0,55,0.00,,,0.03,weatherlink.com 1.10,2013-05-23 23:49:00,
2013-05-23 20:05:00,70.5,53.0,29.98,East,89,2.0,15.0,55,0.00,,,0.03,weatherlink.com 1.10,2013-05-24 00:05:00,
2013-05-23 20:19:00,69.7,53.0,29.99,NNE,13,4.0,20.0,56,0.00,,,0.03,weatherlink.com 1.10,2013-05-24 00:19:00,
2013-05-23 20:34:00,69.1,54.0,30.00,SE,133,1.0,17.0,58,0.00,,,0.03,weatherlink.com 1.10,2013-05-24 00:34:00,
2013-05-23 20:49:00,68.7,54.0,30.00,West,276,2.0,16.0,59,0.00,,,0.03,weatherlink.com 1.10,2013-05-24 00:49:00,
2013-05-23 21:04:00,68.1,54.0,30.01,WNW,288,2.0,9.0,61,0.00,,,0.03,weatherlink.com 1.10,2013-05-24 01:04:00,
2013-05-23 21:19:00,67.4,55.0,30.01,NW,312,4.0,12.0,64,0.00,,,0.03,weatherlink.com 1.10,2013-05-24 01:19:00,
2013-05-23 21:34:00,67.0,54.0,30.01,NW,323,9.0,12.0,64,0.00,,,0.03,weatherlink.com 1.10,2013-05-24 01:34:00,
2013-05-23 21:49:00,66.3,55.0,30.02,North,352,4.0,8.0,66,0.00,,,0.03,weatherlink.com 1.10,2013-05-24 01:49:00,
2013-05-23 22:04:00,66.2,54.0,30.02,NW,322,4.0,14.0,65,0.00,,,0.03,weatherlink.com 1.10,2013-05-24 02:04:00,
2013-05-23 22:19:00,66.1,53.0,30.03,NW,308,7.0,10.0,64,0.00,,,0.03,weatherlink.com 1.10,2013-05-24 02:19:00,
2013-05-23 22:34:00,65.8,54.0,30.04,NW,304,1.0,7.0,65,0.00,,,0.03,weatherlink.com 1.10,2013-05-24 02:34:00,
2013-05-23 22:49:00,65.3,54.0,30.04,NE,56,0.0,12.0,66,0.00,,,0.03,weatherlink.com 1.10,2013-05-24 02:49:00,
2013-05-23 23:04:00,64.8,54.0,30.05,North,8,8.0,9.0,68,0.00,,,0.03,weatherlink.com 1.10,2013-05-24 03:04:00,
2013-05-23 23:19:00,64.5,54.0,30.05,NNW,346,6.0,15.0,68,0.00,,,0.03,weatherlink.com 1.10,2013-05-24 03:19:00,
2013-05-23 23:34:00,64.5,53.0,30.05,East,89,4.0,11.0,67,0.00,,,0.03,weatherlink.com 1.10,2013-05-24 03:34:00,
2013-05-23 23:49:00,64.1,53.0,30.05,WNW,285,4.0,12.0,67,0.00,,,0.03,weatherlink.com 1.10,2013-05-24 03:49:00,